sensor_id;sensor_type;location;lat;lon;timestamp;temperature;humidity
5792;DHT22;2922;53.482;10.006;2023-03-05T00:01:26;3.10;99.90
5792;DHT22;2922;53.482;10.006;2023-03-05T00:03:53;3.10;99.90
5792;DHT22;2922;53.482;10.006;2023-03-05T00:06:22;3.10;99.90
5792;DHT22;2922;53.482;10.006;2023-03-05T00:08:49;3.10;99.90
5792;DHT22;2922;53.482;10.006;2023-03-05T00:11:16;3.00;99.90
5792;DHT22;2922;53.482;10.006;2023-03-05T00:13:42;3.00;99.90
5792;DHT22;2922;53.482;10.006;2023-03-05T00:16:10;3.00;99.90
5792;DHT22;2922;53.482;10.006;2023-03-05T00:18:37;3.00;99.90
5792;DHT22;2922;53.482;10.006;2023-03-05T00:21:04;3.10;99.90
5792;DHT22;2922;53.482;10.006;2023-03-05T00:23:30;3.00;99.90
5792;DHT22;2922;53.482;10.006;2023-03-05T00:25:59;3.10;99.90
5792;DHT22;2922;53.482;10.006;2023-03-05T00:28:24;3.10;99.90
5792;DHT22;2922;53.482;10.006;2023-03-05T00:30:50;3.10;99.90
5792;DHT22;2922;53.482;10.006;2023-03-05T00:33:15;3.10;99.90
5792;DHT22;2922;53.482;10.006;2023-03-05T00:35:43;3.10;99.90
5792;DHT22;2922;53.482;10.006;2023-03-05T00:38:11;3.10;99.90
5792;DHT22;2922;53.482;10.006;2023-03-05T00:40:38;3.10;99.90
5792;DHT22;2922;53.482;10.006;2023-03-05T00:43:04;3.10;99.90
5792;DHT22;2922;53.482;10.006;2023-03-05T00:45:31;3.10;99.90
5792;DHT22;2922;53.482;10.006;2023-03-05T00:47:56;3.10;99.90
5792;DHT22;2922;53.482;10.006;2023-03-05T00:50:22;3.00;99.90
5792;DHT22;2922;53.482;10.006;2023-03-05T00:52:48;3.00;99.90
5792;DHT22;2922;53.482;10.006;2023-03-05T00:55:13;3.00;99.90
5792;DHT22;2922;53.482;10.006;2023-03-05T00:57:39;3.00;99.90
5792;DHT22;2922;53.482;10.006;2023-03-05T01:00:06;2.90;99.90
5792;DHT22;2922;53.482;10.006;2023-03-05T01:02:31;2.90;99.90
5792;DHT22;2922;53.482;10.006;2023-03-05T01:04:57;2.90;99.90
5792;DHT22;2922;53.482;10.006;2023-03-05T01:07:23;2.80;99.90
5792;DHT22;2922;53.482;10.006;2023-03-05T01:09:48;2.80;99.90
5792;DHT22;2922;53.482;10.006;2023-03-05T01:12:14;2.80;99.90
5792;DHT22;2922;53.482;10.006;2023-03-05T01:14:40;2.80;99.90
5792;DHT22;2922;53.482;10.006;2023-03-05T01:17:06;2.80;99.90
5792;DHT22;2922;53.482;10.006;2023-03-05T01:19:31;2.80;99.90
5792;DHT22;2922;53.482;10.006;2023-03-05T01:21:58;2.70;99.90
5792;DHT22;2922;53.482;10.006;2023-03-05T01:24:23;2.70;99.90
5792;DHT22;2922;53.482;10.006;2023-03-05T01:26:49;2.70;99.90
5792;DHT22;2922;53.482;10.006;2023-03-05T01:29:15;2.70;99.90
5792;DHT22;2922;53.482;10.006;2023-03-05T01:31:41;2.70;99.90
5792;DHT22;2922;53.482;10.006;2023-03-05T01:34:06;2.60;99.90
5792;DHT22;2922;53.482;10.006;2023-03-05T01:36:32;2.60;99.90
5792;DHT22;2922;53.482;10.006;2023-03-05T01:38:58;2.60;99.90
5792;DHT22;2922;53.482;10.006;2023-03-05T01:41:23;2.60;99.90
5792;DHT22;2922;53.482;10.006;2023-03-05T01:43:50;2.50;99.90
5792;DHT22;2922;53.482;10.006;2023-03-05T01:48:57;2.50;99.90
5792;DHT22;2922;53.482;10.006;2023-03-05T01:51:28;2.40;99.90
5792;DHT22;2922;53.482;10.006;2023-03-05T01:53:55;2.40;99.90
5792;DHT22;2922;53.482;10.006;2023-03-05T01:56:23;2.40;99.90
5792;DHT22;2922;53.482;10.006;2023-03-05T01:58:49;2.40;99.90
5792;DHT22;2922;53.482;10.006;2023-03-05T02:01:16;2.40;99.90
5792;DHT22;2922;53.482;10.006;2023-03-05T02:03:42;2.30;99.90
5792;DHT22;2922;53.482;10.006;2023-03-05T02:06:08;2.30;99.90
5792;DHT22;2922;53.482;10.006;2023-03-05T02:08:34;2.30;99.90
5792;DHT22;2922;53.482;10.006;2023-03-05T02:10:59;2.30;99.90
5792;DHT22;2922;53.482;10.006;2023-03-05T02:13:30;2.30;99.90
5792;DHT22;2922;53.482;10.006;2023-03-05T02:15:58;2.20;99.90
5792;DHT22;2922;53.482;10.006;2023-03-05T02:18:25;2.20;99.90
5792;DHT22;2922;53.482;10.006;2023-03-05T02:20:52;2.20;99.90
5792;DHT22;2922;53.482;10.006;2023-03-05T02:23:20;2.20;99.90
5792;DHT22;2922;53.482;10.006;2023-03-05T02:25:47;2.10;99.90
5792;DHT22;2922;53.482;10.006;2023-03-05T02:30:56;2.10;99.90
5792;DHT22;2922;53.482;10.006;2023-03-05T02:33:23;2.00;99.90
5792;DHT22;2922;53.482;10.006;2023-03-05T02:35:48;2.00;99.90
5792;DHT22;2922;53.482;10.006;2023-03-05T02:38:16;2.00;99.90
5792;DHT22;2922;53.482;10.006;2023-03-05T02:40:43;2.00;99.90
5792;DHT22;2922;53.482;10.006;2023-03-05T02:43:11;2.00;99.90
5792;DHT22;2922;53.482;10.006;2023-03-05T02:45:37;2.00;99.90
5792;DHT22;2922;53.482;10.006;2023-03-05T02:48:03;2.00;99.90
5792;DHT22;2922;53.482;10.006;2023-03-05T02:50:30;2.00;99.90
5792;DHT22;2922;53.482;10.006;2023-03-05T02:52:56;2.00;99.90
5792;DHT22;2922;53.482;10.006;2023-03-05T02:55:21;2.00;99.90
5792;DHT22;2922;53.482;10.006;2023-03-05T02:57:47;1.90;99.90
5792;DHT22;2922;53.482;10.006;2023-03-05T03:00:13;1.90;99.90
5792;DHT22;2922;53.482;10.006;2023-03-05T03:02:38;1.90;99.90
5792;DHT22;2922;53.482;10.006;2023-03-05T03:05:05;1.90;99.90
5792;DHT22;2922;53.482;10.006;2023-03-05T03:07:30;1.90;99.90
5792;DHT22;2922;53.482;10.006;2023-03-05T03:09:58;1.90;99.90
5792;DHT22;2922;53.482;10.006;2023-03-05T03:12:24;1.90;99.90
5792;DHT22;2922;53.482;10.006;2023-03-05T03:14:49;1.90;99.90
5792;DHT22;2922;53.482;10.006;2023-03-05T03:17:17;1.90;99.90
5792;DHT22;2922;53.482;10.006;2023-03-05T03:19:43;1.90;99.90
5792;DHT22;2922;53.482;10.006;2023-03-05T03:22:11;1.80;99.90
5792;DHT22;2922;53.482;10.006;2023-03-05T03:24:40;1.80;99.90
5792;DHT22;2922;53.482;10.006;2023-03-05T03:27:06;1.80;99.90
5792;DHT22;2922;53.482;10.006;2023-03-05T03:29:32;1.80;99.90
5792;DHT22;2922;53.482;10.006;2023-03-05T03:31:58;1.80;99.90
5792;DHT22;2922;53.482;10.006;2023-03-05T03:34:24;1.70;99.90
5792;DHT22;2922;53.482;10.006;2023-03-05T03:36:50;1.70;99.90
5792;DHT22;2922;53.482;10.006;2023-03-05T03:39:17;1.70;99.90
5792;DHT22;2922;53.482;10.006;2023-03-05T03:41:46;1.70;99.90
5792;DHT22;2922;53.482;10.006;2023-03-05T03:44:12;1.70;99.90
5792;DHT22;2922;53.482;10.006;2023-03-05T03:46:39;1.70;99.90
5792;DHT22;2922;53.482;10.006;2023-03-05T03:49:06;1.70;99.90
5792;DHT22;2922;53.482;10.006;2023-03-05T03:51:32;1.70;99.90
5792;DHT22;2922;53.482;10.006;2023-03-05T03:53:58;1.70;99.90
5792;DHT22;2922;53.482;10.006;2023-03-05T03:56:24;1.70;99.90
5792;DHT22;2922;53.482;10.006;2023-03-05T03:58:51;1.70;99.90
5792;DHT22;2922;53.482;10.006;2023-03-05T04:01:18;1.70;99.90
5792;DHT22;2922;53.482;10.006;2023-03-05T04:03:44;1.60;99.90
5792;DHT22;2922;53.482;10.006;2023-03-05T04:06:10;1.60;99.90
5792;DHT22;2922;53.482;10.006;2023-03-05T04:08:35;1.60;99.90
5792;DHT22;2922;53.482;10.006;2023-03-05T04:11:01;1.60;99.90
5792;DHT22;2922;53.482;10.006;2023-03-05T04:13:28;1.60;99.90
5792;DHT22;2922;53.482;10.006;2023-03-05T04:15:53;1.60;99.90
5792;DHT22;2922;53.482;10.006;2023-03-05T04:18:19;1.60;99.90
5792;DHT22;2922;53.482;10.006;2023-03-05T04:20:45;1.50;99.90
5792;DHT22;2922;53.482;10.006;2023-03-05T04:23:11;1.60;99.90
5792;DHT22;2922;53.482;10.006;2023-03-05T04:25:36;1.60;99.90
5792;DHT22;2922;53.482;10.006;2023-03-05T04:28:02;1.60;99.90
5792;DHT22;2922;53.482;10.006;2023-03-05T04:30:28;1.60;99.90
5792;DHT22;2922;53.482;10.006;2023-03-05T04:32:53;1.60;99.90
5792;DHT22;2922;53.482;10.006;2023-03-05T04:35:19;1.60;99.90
5792;DHT22;2922;53.482;10.006;2023-03-05T04:37:44;1.70;99.90
5792;DHT22;2922;53.482;10.006;2023-03-05T04:40:10;1.70;99.90
5792;DHT22;2922;53.482;10.006;2023-03-05T04:42:36;1.60;99.90
5792;DHT22;2922;53.482;10.006;2023-03-05T04:45:02;1.70;99.90
5792;DHT22;2922;53.482;10.006;2023-03-05T04:47:28;1.70;99.90
5792;DHT22;2922;53.482;10.006;2023-03-05T04:49:54;1.70;99.90
5792;DHT22;2922;53.482;10.006;2023-03-05T04:52:19;1.70;99.90
5792;DHT22;2922;53.482;10.006;2023-03-05T04:54:45;1.70;99.90
5792;DHT22;2922;53.482;10.006;2023-03-05T04:57:10;1.70;99.90
5792;DHT22;2922;53.482;10.006;2023-03-05T04:59:37;1.70;99.90
5792;DHT22;2922;53.482;10.006;2023-03-05T05:02:03;1.70;99.90
5792;DHT22;2922;53.482;10.006;2023-03-05T05:04:29;1.70;99.90
5792;DHT22;2922;53.482;10.006;2023-03-05T05:06:58;1.60;99.90
5792;DHT22;2922;53.482;10.006;2023-03-05T05:09:24;1.70;99.90
5792;DHT22;2922;53.482;10.006;2023-03-05T05:11:50;1.70;99.90
5792;DHT22;2922;53.482;10.006;2023-03-05T05:14:16;1.70;99.90
5792;DHT22;2922;53.482;10.006;2023-03-05T05:16:42;1.70;99.90
5792;DHT22;2922;53.482;10.006;2023-03-05T05:19:07;1.70;99.90
5792;DHT22;2922;53.482;10.006;2023-03-05T05:21:33;1.70;99.90
5792;DHT22;2922;53.482;10.006;2023-03-05T05:23:58;1.70;99.90
5792;DHT22;2922;53.482;10.006;2023-03-05T05:26:24;1.70;99.90
5792;DHT22;2922;53.482;10.006;2023-03-05T05:28:50;1.70;99.90
5792;DHT22;2922;53.482;10.006;2023-03-05T05:31:16;1.70;99.90
5792;DHT22;2922;53.482;10.006;2023-03-05T05:33:42;1.60;99.90
5792;DHT22;2922;53.482;10.006;2023-03-05T05:36:12;1.60;99.90
5792;DHT22;2922;53.482;10.006;2023-03-05T05:38:38;1.60;99.90
5792;DHT22;2922;53.482;10.006;2023-03-05T05:41:05;1.60;99.90
5792;DHT22;2922;53.482;10.006;2023-03-05T05:43:31;1.60;99.90
5792;DHT22;2922;53.482;10.006;2023-03-05T05:46:01;1.60;99.90
5792;DHT22;2922;53.482;10.006;2023-03-05T05:48:32;1.60;99.90
5792;DHT22;2922;53.482;10.006;2023-03-05T05:50:58;1.60;99.90
5792;DHT22;2922;53.482;10.006;2023-03-05T05:53:24;1.60;99.90
5792;DHT22;2922;53.482;10.006;2023-03-05T05:55:51;1.60;99.90
5792;DHT22;2922;53.482;10.006;2023-03-05T05:58:19;1.60;99.90
5792;DHT22;2922;53.482;10.006;2023-03-05T06:00:45;1.60;99.90
5792;DHT22;2922;53.482;10.006;2023-03-05T06:03:11;1.60;99.90
5792;DHT22;2922;53.482;10.006;2023-03-05T06:05:36;1.60;99.90
5792;DHT22;2922;53.482;10.006;2023-03-05T06:08:02;1.60;99.90
5792;DHT22;2922;53.482;10.006;2023-03-05T06:10:27;1.60;99.90
5792;DHT22;2922;53.482;10.006;2023-03-05T06:12:53;1.60;99.90
5792;DHT22;2922;53.482;10.006;2023-03-05T06:15:19;1.60;99.90
5792;DHT22;2922;53.482;10.006;2023-03-05T06:17:45;1.60;99.90
5792;DHT22;2922;53.482;10.006;2023-03-05T06:20:12;1.60;99.90
5792;DHT22;2922;53.482;10.006;2023-03-05T06:22:38;1.60;99.90
5792;DHT22;2922;53.482;10.006;2023-03-05T06:25:06;1.60;99.90
5792;DHT22;2922;53.482;10.006;2023-03-05T06:27:34;1.60;99.90
5792;DHT22;2922;53.482;10.006;2023-03-05T06:30:00;1.60;99.90
5792;DHT22;2922;53.482;10.006;2023-03-05T06:32:26;1.60;99.90
5792;DHT22;2922;53.482;10.006;2023-03-05T06:34:51;1.60;99.90
5792;DHT22;2922;53.482;10.006;2023-03-05T06:37:17;1.60;99.90
5792;DHT22;2922;53.482;10.006;2023-03-05T06:39:43;1.60;99.90
5792;DHT22;2922;53.482;10.006;2023-03-05T06:42:09;1.60;99.90
5792;DHT22;2922;53.482;10.006;2023-03-05T06:44:39;1.60;99.90
5792;DHT22;2922;53.482;10.006;2023-03-05T06:47:07;1.70;99.90
5792;DHT22;2922;53.482;10.006;2023-03-05T06:49:35;1.70;99.90
5792;DHT22;2922;53.482;10.006;2023-03-05T06:52:01;1.70;99.90
5792;DHT22;2922;53.482;10.006;2023-03-05T06:54:27;1.70;99.90
5792;DHT22;2922;53.482;10.006;2023-03-05T06:56:52;1.80;99.90
5792;DHT22;2922;53.482;10.006;2023-03-05T06:59:18;1.70;99.90
5792;DHT22;2922;53.482;10.006;2023-03-05T07:01:44;1.80;99.90
5792;DHT22;2922;53.482;10.006;2023-03-05T07:04:11;1.80;99.90
5792;DHT22;2922;53.482;10.006;2023-03-05T07:06:37;1.80;99.90
5792;DHT22;2922;53.482;10.006;2023-03-05T07:09:05;1.80;99.90
5792;DHT22;2922;53.482;10.006;2023-03-05T07:11:32;1.90;99.90
5792;DHT22;2922;53.482;10.006;2023-03-05T07:13:58;1.90;99.90
5792;DHT22;2922;53.482;10.006;2023-03-05T07:16:27;1.90;99.90
5792;DHT22;2922;53.482;10.006;2023-03-05T07:18:54;1.90;99.90
5792;DHT22;2922;53.482;10.006;2023-03-05T07:21:24;2.00;99.90
5792;DHT22;2922;53.482;10.006;2023-03-05T07:23:52;1.90;99.90
5792;DHT22;2922;53.482;10.006;2023-03-05T07:26:18;2.00;99.90
5792;DHT22;2922;53.482;10.006;2023-03-05T07:28:43;2.00;99.90
5792;DHT22;2922;53.482;10.006;2023-03-05T07:31:18;2.00;99.90
5792;DHT22;2922;53.482;10.006;2023-03-05T07:33:47;2.00;99.90
5792;DHT22;2922;53.482;10.006;2023-03-05T07:36:13;2.10;99.90
5792;DHT22;2922;53.482;10.006;2023-03-05T07:38:39;2.10;99.90
5792;DHT22;2922;53.482;10.006;2023-03-05T07:41:07;2.20;99.90
5792;DHT22;2922;53.482;10.006;2023-03-05T07:43:33;2.20;99.90
5792;DHT22;2922;53.482;10.006;2023-03-05T07:46:03;2.40;99.90
5792;DHT22;2922;53.482;10.006;2023-03-05T07:48:29;2.40;99.90
5792;DHT22;2922;53.482;10.006;2023-03-05T07:51:06;2.40;99.90
5792;DHT22;2922;53.482;10.006;2023-03-05T07:53:32;2.40;99.90
5792;DHT22;2922;53.482;10.006;2023-03-05T07:55:58;2.40;99.90
5792;DHT22;2922;53.482;10.006;2023-03-05T07:58:24;2.40;99.90
5792;DHT22;2922;53.482;10.006;2023-03-05T08:00:49;2.40;99.90
5792;DHT22;2922;53.482;10.006;2023-03-05T08:03:15;2.30;99.90
5792;DHT22;2922;53.482;10.006;2023-03-05T08:05:41;2.30;99.90
5792;DHT22;2922;53.482;10.006;2023-03-05T08:08:07;2.30;99.90
5792;DHT22;2922;53.482;10.006;2023-03-05T08:10:34;2.40;99.90
5792;DHT22;2922;53.482;10.006;2023-03-05T08:13:01;2.40;99.90
5792;DHT22;2922;53.482;10.006;2023-03-05T08:15:28;2.40;99.90
5792;DHT22;2922;53.482;10.006;2023-03-05T08:17:56;2.50;99.90
5792;DHT22;2922;53.482;10.006;2023-03-05T08:20:21;2.50;99.90
5792;DHT22;2922;53.482;10.006;2023-03-05T08:22:51;2.50;99.90
5792;DHT22;2922;53.482;10.006;2023-03-05T08:25:18;2.50;99.90
5792;DHT22;2922;53.482;10.006;2023-03-05T08:27:45;2.60;99.90
5792;DHT22;2922;53.482;10.006;2023-03-05T08:30:14;2.60;99.90
5792;DHT22;2922;53.482;10.006;2023-03-05T08:32:39;2.70;99.90
5792;DHT22;2922;53.482;10.006;2023-03-05T08:35:06;2.70;99.90
5792;DHT22;2922;53.482;10.006;2023-03-05T08:37:32;2.80;99.90
5792;DHT22;2922;53.482;10.006;2023-03-05T08:39:58;2.80;99.90
5792;DHT22;2922;53.482;10.006;2023-03-05T08:42:24;2.80;99.90
5792;DHT22;2922;53.482;10.006;2023-03-05T08:44:50;3.00;99.90
5792;DHT22;2922;53.482;10.006;2023-03-05T08:47:16;3.20;99.90
5792;DHT22;2922;53.482;10.006;2023-03-05T08:49:43;3.40;99.90
5792;DHT22;2922;53.482;10.006;2023-03-05T08:52:08;3.40;99.90
5792;DHT22;2922;53.482;10.006;2023-03-05T08:54:35;3.40;99.90
5792;DHT22;2922;53.482;10.006;2023-03-05T08:57:01;3.40;99.90
5792;DHT22;2922;53.482;10.006;2023-03-05T08:59:27;3.40;99.90
5792;DHT22;2922;53.482;10.006;2023-03-05T09:01:53;3.40;99.90
5792;DHT22;2922;53.482;10.006;2023-03-05T09:04:18;3.40;99.90
5792;DHT22;2922;53.482;10.006;2023-03-05T09:06:44;3.40;99.90
5792;DHT22;2922;53.482;10.006;2023-03-05T09:09:10;3.50;99.90
5792;DHT22;2922;53.482;10.006;2023-03-05T09:11:36;3.70;99.90
5792;DHT22;2922;53.482;10.006;2023-03-05T09:14:02;3.80;99.90
5792;DHT22;2922;53.482;10.006;2023-03-05T09:16:28;3.80;99.90
5792;DHT22;2922;53.482;10.006;2023-03-05T09:18:54;3.90;99.90
5792;DHT22;2922;53.482;10.006;2023-03-05T09:21:19;3.90;99.90
5792;DHT22;2922;53.482;10.006;2023-03-05T09:23:45;3.90;99.90
5792;DHT22;2922;53.482;10.006;2023-03-05T09:26:14;3.90;99.90
5792;DHT22;2922;53.482;10.006;2023-03-05T09:28:43;3.90;99.90
5792;DHT22;2922;53.482;10.006;2023-03-05T09:31:09;3.90;99.90
5792;DHT22;2922;53.482;10.006;2023-03-05T09:33:36;4.00;99.90
5792;DHT22;2922;53.482;10.006;2023-03-05T09:36:03;4.00;99.90
5792;DHT22;2922;53.482;10.006;2023-03-05T09:38:31;4.00;99.90
5792;DHT22;2922;53.482;10.006;2023-03-05T09:41:01;4.10;99.90
5792;DHT22;2922;53.482;10.006;2023-03-05T09:48:39;4.20;99.90
5792;DHT22;2922;53.482;10.006;2023-03-05T09:51:13;4.20;99.90
5792;DHT22;2922;53.482;10.006;2023-03-05T09:53:52;4.30;99.90
5792;DHT22;2922;53.482;10.006;2023-03-05T09:56:23;4.50;99.90
5792;DHT22;2922;53.482;10.006;2023-03-05T10:01:41;4.40;99.90
5792;DHT22;2922;53.482;10.006;2023-03-05T10:04:42;4.20;99.90
5792;DHT22;2922;53.482;10.006;2023-03-05T10:07:18;4.10;99.90
5792;DHT22;2922;53.482;10.006;2023-03-05T10:09:58;4.00;99.90
5792;DHT22;2922;53.482;10.006;2023-03-05T10:12:46;3.90;99.90
5792;DHT22;2922;53.482;10.006;2023-03-05T10:15:21;3.90;99.90
5792;DHT22;2922;53.482;10.006;2023-03-05T10:18:12;3.90;99.90
5792;DHT22;2922;53.482;10.006;2023-03-05T10:20:48;3.80;99.90
5792;DHT22;2922;53.482;10.006;2023-03-05T10:23:27;3.90;99.90
5792;DHT22;2922;53.482;10.006;2023-03-05T10:43:11;4.00;99.90
5792;DHT22;2922;53.482;10.006;2023-03-05T10:45:38;3.90;99.90
5792;DHT22;2922;53.482;10.006;2023-03-05T10:48:24;3.70;99.90
5792;DHT22;2922;53.482;10.006;2023-03-05T10:50:54;3.60;99.90
5792;DHT22;2922;53.482;10.006;2023-03-05T10:53:31;3.70;99.90
5792;DHT22;2922;53.482;10.006;2023-03-05T10:56:05;3.90;99.90
5792;DHT22;2922;53.482;10.006;2023-03-05T10:58:31;4.20;99.90
5792;DHT22;2922;53.482;10.006;2023-03-05T11:06:36;5.10;99.90
5792;DHT22;2922;53.482;10.006;2023-03-05T11:09:27;5.30;99.90
5792;DHT22;2922;53.482;10.006;2023-03-05T11:12:10;5.60;99.90
5792;DHT22;2922;53.482;10.006;2023-03-05T11:14:42;5.80;99.90
5792;DHT22;2922;53.482;10.006;2023-03-05T11:17:34;5.80;99.90
5792;DHT22;2922;53.482;10.006;2023-03-05T11:25:34;6.40;99.90
5792;DHT22;2922;53.482;10.006;2023-03-05T11:28:02;6.50;99.90
5792;DHT22;2922;53.482;10.006;2023-03-05T11:30:32;6.40;99.90
5792;DHT22;2922;53.482;10.006;2023-03-05T11:33:19;6.10;99.90
5792;DHT22;2922;53.482;10.006;2023-03-05T11:35:46;5.80;99.90
5792;DHT22;2922;53.482;10.006;2023-03-05T11:38:25;5.70;99.90
5792;DHT22;2922;53.482;10.006;2023-03-05T11:40:52;5.90;99.90
5792;DHT22;2922;53.482;10.006;2023-03-05T11:43:21;6.00;99.90
5792;DHT22;2922;53.482;10.006;2023-03-05T11:45:53;6.00;99.90
5792;DHT22;2922;53.482;10.006;2023-03-05T11:48:29;6.00;99.90
5792;DHT22;2922;53.482;10.006;2023-03-05T11:50:58;5.90;99.90
5792;DHT22;2922;53.482;10.006;2023-03-05T11:53:33;5.80;99.90
5792;DHT22;2922;53.482;10.006;2023-03-05T11:56:10;5.90;99.90
5792;DHT22;2922;53.482;10.006;2023-03-05T11:58:49;5.90;99.90
5792;DHT22;2922;53.482;10.006;2023-03-05T12:01:21;5.80;99.90
5792;DHT22;2922;53.482;10.006;2023-03-05T12:03:48;5.90;99.90
5792;DHT22;2922;53.482;10.006;2023-03-05T12:06:28;6.10;99.90
5792;DHT22;2922;53.482;10.006;2023-03-05T12:09:02;6.10;99.90
5792;DHT22;2922;53.482;10.006;2023-03-05T12:11:30;6.20;99.90
5792;DHT22;2922;53.482;10.006;2023-03-05T12:16:55;6.40;99.90
5792;DHT22;2922;53.482;10.006;2023-03-05T12:19:48;6.40;99.90
5792;DHT22;2922;53.482;10.006;2023-03-05T12:22:21;6.50;99.90
5792;DHT22;2922;53.482;10.006;2023-03-05T12:24:48;6.30;99.90
5792;DHT22;2922;53.482;10.006;2023-03-05T12:27:29;6.20;99.90
5792;DHT22;2922;53.482;10.006;2023-03-05T12:29:56;6.20;99.90
5792;DHT22;2922;53.482;10.006;2023-03-05T12:35:24;6.10;99.90
5792;DHT22;2922;53.482;10.006;2023-03-05T12:40:30;6.00;99.90
5792;DHT22;2922;53.482;10.006;2023-03-05T12:43:02;5.90;99.90
5792;DHT22;2922;53.482;10.006;2023-03-05T12:45:34;5.80;99.90
5792;DHT22;2922;53.482;10.006;2023-03-05T12:55:26;5.60;99.90
5792;DHT22;2922;53.482;10.006;2023-03-05T12:57:57;5.50;99.90
5792;DHT22;2922;53.482;10.006;2023-03-05T13:00:32;5.60;99.90
5792;DHT22;2922;53.482;10.006;2023-03-05T13:03:08;5.50;99.90
5792;DHT22;2922;53.482;10.006;2023-03-05T13:05:36;5.50;99.90
5792;DHT22;2922;53.482;10.006;2023-03-05T13:08:11;5.50;99.90
5792;DHT22;2922;53.482;10.006;2023-03-05T13:10:37;5.60;99.90
5792;DHT22;2922;53.482;10.006;2023-03-05T13:13:04;5.70;99.90
5792;DHT22;2922;53.482;10.006;2023-03-05T13:15:30;5.70;99.90
5792;DHT22;2922;53.482;10.006;2023-03-05T13:18:03;5.80;99.90
5792;DHT22;2922;53.482;10.006;2023-03-05T13:20:37;5.80;99.90
5792;DHT22;2922;53.482;10.006;2023-03-05T13:23:16;5.70;99.90
5792;DHT22;2922;53.482;10.006;2023-03-05T13:25:44;5.70;99.90
5792;DHT22;2922;53.482;10.006;2023-03-05T13:28:15;5.60;99.90
5792;DHT22;2922;53.482;10.006;2023-03-05T13:31:14;5.40;99.90
5792;DHT22;2922;53.482;10.006;2023-03-05T13:33:49;5.40;99.90
5792;DHT22;2922;53.482;10.006;2023-03-05T13:36:17;5.60;99.90
5792;DHT22;2922;53.482;10.006;2023-03-05T13:38:44;5.70;99.90
5792;DHT22;2922;53.482;10.006;2023-03-05T13:43:57;5.80;99.90
5792;DHT22;2922;53.482;10.006;2023-03-05T13:46:34;5.60;99.90
5792;DHT22;2922;53.482;10.006;2023-03-05T13:51:44;5.60;99.90
5792;DHT22;2922;53.482;10.006;2023-03-05T13:54:13;5.50;99.90
5792;DHT22;2922;53.482;10.006;2023-03-05T13:56:49;5.60;99.90
5792;DHT22;2922;53.482;10.006;2023-03-05T13:59:20;5.50;99.90
5792;DHT22;2922;53.482;10.006;2023-03-05T14:01:46;5.50;99.90
5792;DHT22;2922;53.482;10.006;2023-03-05T14:09:27;5.40;99.90
5792;DHT22;2922;53.482;10.006;2023-03-05T14:14:21;5.30;99.90
5792;DHT22;2922;53.482;10.006;2023-03-05T14:16:47;5.30;99.90
5792;DHT22;2922;53.482;10.006;2023-03-05T14:19:35;5.30;99.90
5792;DHT22;2922;53.482;10.006;2023-03-05T14:22:01;5.40;99.90
5792;DHT22;2922;53.482;10.006;2023-03-05T14:24:27;5.30;99.90
5792;DHT22;2922;53.482;10.006;2023-03-05T14:26:57;5.30;99.90
5792;DHT22;2922;53.482;10.006;2023-03-05T14:29:26;5.30;99.90
5792;DHT22;2922;53.482;10.006;2023-03-05T14:32:01;5.30;99.90
5792;DHT22;2922;53.482;10.006;2023-03-05T14:34:34;5.30;99.90
5792;DHT22;2922;53.482;10.006;2023-03-05T14:37:22;5.30;99.90
5792;DHT22;2922;53.482;10.006;2023-03-05T14:39:57;5.30;99.90
5792;DHT22;2922;53.482;10.006;2023-03-05T14:43:03;5.30;99.90
5792;DHT22;2922;53.482;10.006;2023-03-05T14:45:27;5.20;99.90
5792;DHT22;2922;53.482;10.006;2023-03-05T14:47:54;5.10;99.90
5792;DHT22;2922;53.482;10.006;2023-03-05T14:50:26;5.10;99.90
5792;DHT22;2922;53.482;10.006;2023-03-05T14:52:56;5.00;99.90
5792;DHT22;2922;53.482;10.006;2023-03-05T14:55:24;5.00;99.90
5792;DHT22;2922;53.482;10.006;2023-03-05T14:57:52;5.00;99.90
5792;DHT22;2922;53.482;10.006;2023-03-05T15:00:26;5.00;99.90
5792;DHT22;2922;53.482;10.006;2023-03-05T15:02:54;5.00;99.90
5792;DHT22;2922;53.482;10.006;2023-03-05T15:05:21;5.00;99.90
5792;DHT22;2922;53.482;10.006;2023-03-05T15:07:48;5.00;99.90
5792;DHT22;2922;53.482;10.006;2023-03-05T15:10:19;4.90;99.90
5792;DHT22;2922;53.482;10.006;2023-03-05T15:12:45;4.90;99.90
5792;DHT22;2922;53.482;10.006;2023-03-05T15:15:14;4.90;99.90
5792;DHT22;2922;53.482;10.006;2023-03-05T15:17:42;5.00;99.90
5792;DHT22;2922;53.482;10.006;2023-03-05T15:20:21;5.00;99.90
5792;DHT22;2922;53.482;10.006;2023-03-05T15:22:47;4.90;99.90
5792;DHT22;2922;53.482;10.006;2023-03-05T15:25:12;4.90;99.90
5792;DHT22;2922;53.482;10.006;2023-03-05T15:27:38;4.90;99.90
5792;DHT22;2922;53.482;10.006;2023-03-05T15:30:06;4.90;99.90
5792;DHT22;2922;53.482;10.006;2023-03-05T15:32:32;4.80;99.90
5792;DHT22;2922;53.482;10.006;2023-03-05T15:34:58;4.80;99.90
5792;DHT22;2922;53.482;10.006;2023-03-05T15:37:24;4.80;99.90
5792;DHT22;2922;53.482;10.006;2023-03-05T15:39:50;4.80;99.90
5792;DHT22;2922;53.482;10.006;2023-03-05T15:42:16;4.80;99.90
5792;DHT22;2922;53.482;10.006;2023-03-05T15:44:43;4.80;99.90
5792;DHT22;2922;53.482;10.006;2023-03-05T15:47:09;4.70;99.90
5792;DHT22;2922;53.482;10.006;2023-03-05T15:49:34;4.70;99.90
5792;DHT22;2922;53.482;10.006;2023-03-05T15:52:00;4.70;99.90
5792;DHT22;2922;53.482;10.006;2023-03-05T15:54:26;4.70;99.90
5792;DHT22;2922;53.482;10.006;2023-03-05T15:56:53;4.60;99.90
5792;DHT22;2922;53.482;10.006;2023-03-05T15:59:19;4.60;99.90
5792;DHT22;2922;53.482;10.006;2023-03-05T16:01:50;4.50;99.90
5792;DHT22;2922;53.482;10.006;2023-03-05T16:04:16;4.50;99.90
5792;DHT22;2922;53.482;10.006;2023-03-05T16:06:44;4.40;99.90
5792;DHT22;2922;53.482;10.006;2023-03-05T16:09:11;4.40;99.90
5792;DHT22;2922;53.482;10.006;2023-03-05T16:11:38;4.30;99.90
5792;DHT22;2922;53.482;10.006;2023-03-05T16:14:08;4.20;99.90
5792;DHT22;2922;53.482;10.006;2023-03-05T16:16:35;4.20;99.90
5792;DHT22;2922;53.482;10.006;2023-03-05T16:19:02;4.20;99.90
5792;DHT22;2922;53.482;10.006;2023-03-05T16:21:29;4.20;99.90
5792;DHT22;2922;53.482;10.006;2023-03-05T16:23:55;4.10;99.90
5792;DHT22;2922;53.482;10.006;2023-03-05T16:26:20;4.00;99.90
5792;DHT22;2922;53.482;10.006;2023-03-05T16:28:46;4.00;99.90
5792;DHT22;2922;53.482;10.006;2023-03-05T16:31:11;4.00;99.90
5792;DHT22;2922;53.482;10.006;2023-03-05T16:33:37;3.90;99.90
5792;DHT22;2922;53.482;10.006;2023-03-05T16:36:22;3.90;99.90
5792;DHT22;2922;53.482;10.006;2023-03-05T16:38:49;3.90;99.90
5792;DHT22;2922;53.482;10.006;2023-03-05T16:41:15;3.80;99.90
5792;DHT22;2922;53.482;10.006;2023-03-05T16:43:42;3.80;99.90
5792;DHT22;2922;53.482;10.006;2023-03-05T16:46:08;3.80;99.90
5792;DHT22;2922;53.482;10.006;2023-03-05T16:48:34;3.70;99.90
5792;DHT22;2922;53.482;10.006;2023-03-05T16:51:00;3.70;99.90
5792;DHT22;2922;53.482;10.006;2023-03-05T16:53:26;3.60;99.90
5792;DHT22;2922;53.482;10.006;2023-03-05T16:55:51;3.50;99.90
5792;DHT22;2922;53.482;10.006;2023-03-05T16:58:17;3.50;99.90
5792;DHT22;2922;53.482;10.006;2023-03-05T17:00:44;3.40;99.90
5792;DHT22;2922;53.482;10.006;2023-03-05T17:03:09;3.40;99.90
5792;DHT22;2922;53.482;10.006;2023-03-05T17:05:36;3.40;99.90
5792;DHT22;2922;53.482;10.006;2023-03-05T17:08:02;3.40;99.90
5792;DHT22;2922;53.482;10.006;2023-03-05T17:10:29;3.40;99.90
5792;DHT22;2922;53.482;10.006;2023-03-05T17:12:55;3.30;99.90
5792;DHT22;2922;53.482;10.006;2023-03-05T17:15:21;3.30;99.90
5792;DHT22;2922;53.482;10.006;2023-03-05T17:17:46;3.30;99.90
5792;DHT22;2922;53.482;10.006;2023-03-05T17:20:12;3.20;99.90